sensor_id;sensor_type;location;lat;lon;timestamp;P1;durP1;ratioP1;P2;durP2;ratioP2
21754;SDS011;11039;50.028;19.938;2022-08-05T00:01:45;8.82;;;7.75;;
21754;SDS011;11039;50.028;19.938;2022-08-05T00:04:11;9.10;;;7.20;;
21754;SDS011;11039;50.028;19.938;2022-08-05T00:06:37;7.90;;;6.68;;
21754;SDS011;11039;50.028;19.938;2022-08-05T00:09:03;9.38;;;6.60;;
21754;SDS011;11039;50.028;19.938;2022-08-05T00:11:30;8.13;;;6.40;;
21754;SDS011;11039;50.028;19.938;2022-08-05T00:13:56;9.10;;;6.50;;
21754;SDS011;11039;50.028;19.938;2022-08-05T00:16:22;8.95;;;5.75;;
21754;SDS011;11039;50.028;19.938;2022-08-05T00:18:48;6.47;;;5.78;;
21754;SDS011;11039;50.028;19.938;2022-08-05T00:21:15;9.90;;;6.72;;
21754;SDS011;11039;50.028;19.938;2022-08-05T00:23:42;10.13;;;7.15;;
21754;SDS011;11039;50.028;19.938;2022-08-05T00:26:08;9.65;;;6.40;;
21754;SDS011;11039;50.028;19.938;2022-08-05T00:28:34;8.27;;;5.50;;
21754;SDS011;11039;50.028;19.938;2022-08-05T00:31:01;7.78;;;5.88;;
21754;SDS011;11039;50.028;19.938;2022-08-05T00:33:27;8.73;;;6.47;;
21754;SDS011;11039;50.028;19.938;2022-08-05T00:35:53;8.20;;;6.63;;
21754;SDS011;11039;50.028;19.938;2022-08-05T00:38:19;10.80;;;6.53;;
21754;SDS011;11039;50.028;19.938;2022-08-05T00:40:46;10.88;;;6.45;;
21754;SDS011;11039;50.028;19.938;2022-08-05T00:43:13;7.80;;;6.50;;
21754;SDS011;11039;50.028;19.938;2022-08-05T00:45:39;9.07;;;6.55;;
21754;SDS011;11039;50.028;19.938;2022-08-05T00:48:09;8.63;;;6.60;;
21754;SDS011;11039;50.028;19.938;2022-08-05T00:50:36;9.70;;;6.80;;
21754;SDS011;11039;50.028;19.938;2022-08-05T00:53:02;9.07;;;6.93;;
21754;SDS011;11039;50.028;19.938;2022-08-05T00:55:28;8.73;;;6.35;;
21754;SDS011;11039;50.028;19.938;2022-08-05T00:57:54;9.88;;;6.70;;
21754;SDS011;11039;50.028;19.938;2022-08-05T01:00:20;7.22;;;6.43;;
21754;SDS011;11039;50.028;19.938;2022-08-05T01:02:46;10.13;;;6.60;;
21754;SDS011;11039;50.028;19.938;2022-08-05T01:05:12;12.65;;;6.85;;
21754;SDS011;11039;50.028;19.938;2022-08-05T01:07:38;10.95;;;6.50;;
21754;SDS011;11039;50.028;19.938;2022-08-05T01:10:06;8.60;;;5.82;;
21754;SDS011;11039;50.028;19.938;2022-08-05T01:12:33;10.45;;;6.38;;
21754;SDS011;11039;50.028;19.938;2022-08-05T01:15:03;7.53;;;6.00;;
21754;SDS011;11039;50.028;19.938;2022-08-05T01:17:31;11.75;;;6.85;;
21754;SDS011;11039;50.028;19.938;2022-08-05T01:25:15;8.50;;;6.43;;
21754;SDS011;11039;50.028;19.938;2022-08-05T01:30:30;8.73;;;6.20;;
21754;SDS011;11039;50.028;19.938;2022-08-05T01:32:59;9.98;;;6.43;;
21754;SDS011;11039;50.028;19.938;2022-08-05T01:35:27;9.38;;;6.03;;
21754;SDS011;11039;50.028;19.938;2022-08-05T01:37:56;9.30;;;6.50;;
21754;SDS011;11039;50.028;19.938;2022-08-05T01:40:25;7.57;;;6.20;;
21754;SDS011;11039;50.028;19.938;2022-08-05T01:42:53;11.00;;;6.88;;
21754;SDS011;11039;50.028;19.938;2022-08-05T01:45:20;8.50;;;6.38;;
21754;SDS011;11039;50.028;19.938;2022-08-05T01:47:47;8.23;;;6.63;;
21754;SDS011;11039;50.028;19.938;2022-08-05T01:50:21;7.75;;;6.57;;
21754;SDS011;11039;50.028;19.938;2022-08-05T01:52:49;9.10;;;6.50;;
21754;SDS011;11039;50.028;19.938;2022-08-05T01:55:19;9.40;;;6.13;;
21754;SDS011;11039;50.028;19.938;2022-08-05T01:57:45;9.13;;;6.88;;
21754;SDS011;11039;50.028;19.938;2022-08-05T02:00:12;13.90;;;6.75;;
21754;SDS011;11039;50.028;19.938;2022-08-05T02:02:48;10.00;;;7.15;;
21754;SDS011;11039;50.028;19.938;2022-08-05T02:05:16;8.20;;;6.72;;
21754;SDS011;11039;50.028;19.938;2022-08-05T02:07:44;8.73;;;6.63;;
21754;SDS011;11039;50.028;19.938;2022-08-05T02:10:10;8.98;;;7.05;;
21754;SDS011;11039;50.028;19.938;2022-08-05T02:15:13;8.40;;;7.30;;
21754;SDS011;11039;50.028;19.938;2022-08-05T02:17:48;10.18;;;7.65;;
21754;SDS011;11039;50.028;19.938;2022-08-05T02:20:21;9.60;;;8.02;;
21754;SDS011;11039;50.028;19.938;2022-08-05T02:22:55;10.15;;;8.68;;
21754;SDS011;11039;50.028;19.938;2022-08-05T02:25:35;11.02;;;8.25;;
21754;SDS011;11039;50.028;19.938;2022-08-05T02:28:03;12.82;;;8.25;;
21754;SDS011;11039;50.028;19.938;2022-08-05T02:30:30;10.13;;;7.95;;
21754;SDS011;11039;50.028;19.938;2022-08-05T02:32:56;11.20;;;8.20;;
21754;SDS011;11039;50.028;19.938;2022-08-05T02:35:23;12.25;;;8.55;;
21754;SDS011;11039;50.028;19.938;2022-08-05T02:37:50;12.60;;;7.75;;
21754;SDS011;11039;50.028;19.938;2022-08-05T02:40:18;9.05;;;7.30;;
21754;SDS011;11039;50.028;19.938;2022-08-05T02:42:45;9.27;;;7.90;;
21754;SDS011;11039;50.028;19.938;2022-08-05T02:45:12;11.95;;;8.15;;
21754;SDS011;11039;50.028;19.938;2022-08-05T02:47:39;10.82;;;8.90;;
21754;SDS011;11039;50.028;19.938;2022-08-05T02:50:05;10.60;;;8.70;;
21754;SDS011;11039;50.028;19.938;2022-08-05T02:52:32;10.70;;;8.70;;
21754;SDS011;11039;50.028;19.938;2022-08-05T02:54:59;12.40;;;9.40;;
21754;SDS011;11039;50.028;19.938;2022-08-05T02:57:25;11.27;;;8.88;;
21754;SDS011;11039;50.028;19.938;2022-08-05T02:59:52;13.27;;;9.73;;
21754;SDS011;11039;50.028;19.938;2022-08-05T03:02:19;14.50;;;8.95;;
21754;SDS011;11039;50.028;19.938;2022-08-05T03:04:45;11.57;;;7.93;;
21754;SDS011;11039;50.028;19.938;2022-08-05T03:07:12;12.90;;;8.77;;
21754;SDS011;11039;50.028;19.938;2022-08-05T03:09:41;10.60;;;7.93;;
21754;SDS011;11039;50.028;19.938;2022-08-05T03:12:08;12.35;;;8.88;;
21754;SDS011;11039;50.028;19.938;2022-08-05T03:14:34;16.05;;;9.52;;
21754;SDS011;11039;50.028;19.938;2022-08-05T03:17:00;12.20;;;8.70;;
21754;SDS011;11039;50.028;19.938;2022-08-05T03:19:26;11.35;;;8.40;;
21754;SDS011;11039;50.028;19.938;2022-08-05T03:21:52;12.02;;;8.60;;
21754;SDS011;11039;50.028;19.938;2022-08-05T03:24:18;12.32;;;8.82;;
21754;SDS011;11039;50.028;19.938;2022-08-05T03:26:44;9.30;;;8.38;;
21754;SDS011;11039;50.028;19.938;2022-08-05T03:29:10;13.15;;;8.35;;
21754;SDS011;11039;50.028;19.938;2022-08-05T03:31:36;9.68;;;7.70;;
21754;SDS011;11039;50.028;19.938;2022-08-05T03:34:03;10.65;;;8.52;;
21754;SDS011;11039;50.028;19.938;2022-08-05T03:36:29;11.10;;;7.88;;
21754;SDS011;11039;50.028;19.938;2022-08-05T03:38:55;10.48;;;8.02;;
21754;SDS011;11039;50.028;19.938;2022-08-05T03:41:21;9.30;;;7.85;;
21754;SDS011;11039;50.028;19.938;2022-08-05T03:43:47;10.75;;;7.60;;
21754;SDS011;11039;50.028;19.938;2022-08-05T03:46:13;11.20;;;7.45;;
21754;SDS011;11039;50.028;19.938;2022-08-05T03:48:39;15.80;;;9.18;;
21754;SDS011;11039;50.028;19.938;2022-08-05T03:53:33;9.70;;;7.80;;
21754;SDS011;11039;50.028;19.938;2022-08-05T03:56:06;9.85;;;7.85;;
21754;SDS011;11039;50.028;19.938;2022-08-05T03:58:35;11.80;;;8.07;;
21754;SDS011;11039;50.028;19.938;2022-08-05T04:01:03;10.20;;;8.13;;
21754;SDS011;11039;50.028;19.938;2022-08-05T04:03:31;12.23;;;8.23;;
21754;SDS011;11039;50.028;19.938;2022-08-05T04:06:00;9.43;;;7.82;;
21754;SDS011;11039;50.028;19.938;2022-08-05T04:08:26;10.45;;;8.18;;
21754;SDS011;11039;50.028;19.938;2022-08-05T04:10:54;10.30;;;8.38;;
21754;SDS011;11039;50.028;19.938;2022-08-05T04:13:21;12.52;;;8.65;;
21754;SDS011;11039;50.028;19.938;2022-08-05T04:15:48;11.30;;;9.23;;
21754;SDS011;11039;50.028;19.938;2022-08-05T04:18:14;10.82;;;9.50;;
21754;SDS011;11039;50.028;19.938;2022-08-05T04:20:40;10.98;;;9.50;;
21754;SDS011;11039;50.028;19.938;2022-08-05T04:23:07;9.82;;;8.60;;
21754;SDS011;11039;50.028;19.938;2022-08-05T04:25:34;11.73;;;9.20;;
21754;SDS011;11039;50.028;19.938;2022-08-05T04:28:00;10.45;;;8.73;;
21754;SDS011;11039;50.028;19.938;2022-08-05T04:30:26;12.20;;;8.77;;
21754;SDS011;11039;50.028;19.938;2022-08-05T04:32:52;11.98;;;9.00;;
21754;SDS011;11039;50.028;19.938;2022-08-05T04:35:18;12.05;;;8.27;;
21754;SDS011;11039;50.028;19.938;2022-08-05T04:37:44;11.93;;;8.23;;
21754;SDS011;11039;50.028;19.938;2022-08-05T04:40:10;9.70;;;7.63;;
21754;SDS011;11039;50.028;19.938;2022-08-05T04:42:36;10.25;;;7.82;;
21754;SDS011;11039;50.028;19.938;2022-08-05T04:45:02;11.57;;;7.18;;
21754;SDS011;11039;50.028;19.938;2022-08-05T04:47:28;10.93;;;7.35;;
21754;SDS011;11039;50.028;19.938;2022-08-05T04:49:54;11.18;;;7.63;;
21754;SDS011;11039;50.028;19.938;2022-08-05T04:52:20;9.25;;;7.00;;
21754;SDS011;11039;50.028;19.938;2022-08-05T04:54:46;9.85;;;7.80;;
21754;SDS011;11039;50.028;19.938;2022-08-05T04:57:12;8.15;;;7.13;;
21754;SDS011;11039;50.028;19.938;2022-08-05T04:59:38;9.80;;;7.07;;
21754;SDS011;11039;50.028;19.938;2022-08-05T05:02:04;11.38;;;6.97;;
21754;SDS011;11039;50.028;19.938;2022-08-05T05:04:30;9.10;;;6.85;;
21754;SDS011;11039;50.028;19.938;2022-08-05T05:06:56;10.05;;;7.07;;
21754;SDS011;11039;50.028;19.938;2022-08-05T05:09:22;10.50;;;6.72;;
21754;SDS011;11039;50.028;19.938;2022-08-05T05:11:48;10.65;;;6.63;;
21754;SDS011;11039;50.028;19.938;2022-08-05T05:14:14;9.23;;;6.82;;
21754;SDS011;11039;50.028;19.938;2022-08-05T05:16:40;10.13;;;7.15;;
21754;SDS011;11039;50.028;19.938;2022-08-05T05:19:06;9.65;;;6.82;;
21754;SDS011;11039;50.028;19.938;2022-08-05T05:21:32;10.25;;;7.00;;
21754;SDS011;11039;50.028;19.938;2022-08-05T05:23:58;10.82;;;6.72;;
21754;SDS011;11039;50.028;19.938;2022-08-05T05:26:24;9.90;;;6.85;;
21754;SDS011;11039;50.028;19.938;2022-08-05T05:28:50;8.15;;;6.05;;
21754;SDS011;11039;50.028;19.938;2022-08-05T05:31:16;10.73;;;6.70;;
21754;SDS011;11039;50.028;19.938;2022-08-05T05:33:42;7.50;;;6.25;;
21754;SDS011;11039;50.028;19.938;2022-08-05T05:36:08;9.82;;;6.18;;
21754;SDS011;11039;50.028;19.938;2022-08-05T05:38:34;10.25;;;6.70;;
21754;SDS011;11039;50.028;19.938;2022-08-05T05:41:00;10.40;;;7.20;;
21754;SDS011;11039;50.028;19.938;2022-08-05T05:43:26;8.80;;;6.72;;
21754;SDS011;11039;50.028;19.938;2022-08-05T05:45:52;10.80;;;6.88;;
21754;SDS011;11039;50.028;19.938;2022-08-05T05:48:18;11.43;;;7.10;;
21754;SDS011;11039;50.028;19.938;2022-08-05T05:50:44;13.30;;;7.10;;
21754;SDS011;11039;50.028;19.938;2022-08-05T05:53:11;12.23;;;7.20;;
21754;SDS011;11039;50.028;19.938;2022-08-05T05:55:37;15.60;;;7.18;;
21754;SDS011;11039;50.028;19.938;2022-08-05T05:58:03;13.35;;;6.70;;
21754;SDS011;11039;50.028;19.938;2022-08-05T06:00:29;12.93;;;7.47;;
21754;SDS011;11039;50.028;19.938;2022-08-05T06:02:55;12.40;;;7.40;;
21754;SDS011;11039;50.028;19.938;2022-08-05T06:05:21;12.85;;;6.70;;
21754;SDS011;11039;50.028;19.938;2022-08-05T06:07:47;17.52;;;7.05;;
21754;SDS011;11039;50.028;19.938;2022-08-05T06:10:14;17.80;;;6.63;;
21754;SDS011;11039;50.028;19.938;2022-08-05T06:12:40;13.40;;;7.18;;
21754;SDS011;11039;50.028;19.938;2022-08-05T06:15:06;11.07;;;6.40;;
21754;SDS011;11039;50.028;19.938;2022-08-05T06:17:32;14.48;;;7.07;;
21754;SDS011;11039;50.028;19.938;2022-08-05T06:19:58;11.38;;;6.38;;
21754;SDS011;11039;50.028;19.938;2022-08-05T06:22:34;11.20;;;6.15;;
21754;SDS011;11039;50.028;19.938;2022-08-05T06:25:00;15.93;;;6.20;;
21754;SDS011;11039;50.028;19.938;2022-08-05T06:27:27;10.43;;;5.15;;
21754;SDS011;11039;50.028;19.938;2022-08-05T06:29:53;8.70;;;5.72;;
21754;SDS011;11039;50.028;19.938;2022-08-05T06:32:19;7.72;;;5.30;;
21754;SDS011;11039;50.028;19.938;2022-08-05T06:34:45;10.02;;;5.07;;
21754;SDS011;11039;50.028;19.938;2022-08-05T06:37:11;8.18;;;5.18;;
21754;SDS011;11039;50.028;19.938;2022-08-05T06:39:37;9.43;;;5.22;;
21754;SDS011;11039;50.028;19.938;2022-08-05T06:42:03;7.50;;;5.10;;
21754;SDS011;11039;50.028;19.938;2022-08-05T06:44:29;10.13;;;5.00;;
21754;SDS011;11039;50.028;19.938;2022-08-05T06:46:55;12.05;;;5.60;;
21754;SDS011;11039;50.028;19.938;2022-08-05T06:49:22;7.28;;;5.32;;
21754;SDS011;11039;50.028;19.938;2022-08-05T06:51:48;10.82;;;5.20;;
21754;SDS011;11039;50.028;19.938;2022-08-05T06:54:14;7.60;;;5.03;;
21754;SDS011;11039;50.028;19.938;2022-08-05T06:56:40;7.47;;;5.10;;
21754;SDS011;11039;50.028;19.938;2022-08-05T06:59:06;8.52;;;4.82;;
21754;SDS011;11039;50.028;19.938;2022-08-05T07:01:32;7.32;;;4.68;;
21754;SDS011;11039;50.028;19.938;2022-08-05T07:03:59;7.07;;;5.05;;
21754;SDS011;11039;50.028;19.938;2022-08-05T07:06:25;6.05;;;4.55;;
21754;SDS011;11039;50.028;19.938;2022-08-05T07:08:51;7.43;;;4.35;;
21754;SDS011;11039;50.028;19.938;2022-08-05T07:11:17;6.63;;;4.70;;
21754;SDS011;11039;50.028;19.938;2022-08-05T07:13:44;6.78;;;4.45;;
21754;SDS011;11039;50.028;19.938;2022-08-05T07:16:29;8.52;;;4.40;;
21754;SDS011;11039;50.028;19.938;2022-08-05T07:19:13;5.68;;;4.20;;
21754;SDS011;11039;50.028;19.938;2022-08-05T07:21:39;8.57;;;4.70;;
21754;SDS011;11039;50.028;19.938;2022-08-05T07:24:05;6.50;;;5.00;;
21754;SDS011;11039;50.028;19.938;2022-08-05T07:26:32;9.85;;;5.03;;
21754;SDS011;11039;50.028;19.938;2022-08-05T07:28:58;7.35;;;4.40;;
21754;SDS011;11039;50.028;19.938;2022-08-05T07:31:24;5.72;;;4.55;;
21754;SDS011;11039;50.028;19.938;2022-08-05T07:33:50;6.97;;;4.47;;
21754;SDS011;11039;50.028;19.938;2022-08-05T07:36:16;5.32;;;4.40;;
21754;SDS011;11039;50.028;19.938;2022-08-05T07:38:42;7.35;;;4.90;;
21754;SDS011;11039;50.028;19.938;2022-08-05T07:41:09;5.57;;;4.30;;
21754;SDS011;11039;50.028;19.938;2022-08-05T07:43:35;5.28;;;4.20;;
21754;SDS011;11039;50.028;19.938;2022-08-05T07:46:01;7.03;;;4.55;;
21754;SDS011;11039;50.028;19.938;2022-08-05T07:48:27;6.53;;;4.45;;
21754;SDS011;11039;50.028;19.938;2022-08-05T07:50:53;4.88;;;3.90;;
21754;SDS011;11039;50.028;19.938;2022-08-05T07:53:19;6.32;;;4.28;;
21754;SDS011;11039;50.028;19.938;2022-08-05T07:55:45;5.53;;;4.07;;
21754;SDS011;11039;50.028;19.938;2022-08-05T07:58:11;6.78;;;4.07;;
21754;SDS011;11039;50.028;19.938;2022-08-05T08:00:37;6.30;;;4.18;;
21754;SDS011;11039;50.028;19.938;2022-08-05T08:03:08;7.85;;;3.80;;
21754;SDS011;11039;50.028;19.938;2022-08-05T08:05:34;7.32;;;4.32;;
21754;SDS011;11039;50.028;19.938;2022-08-05T08:08:00;4.32;;;3.80;;
21754;SDS011;11039;50.028;19.938;2022-08-05T08:10:27;5.65;;;4.20;;
21754;SDS011;11039;50.028;19.938;2022-08-05T08:12:53;6.90;;;3.90;;
21754;SDS011;11039;50.028;19.938;2022-08-05T08:15:19;5.30;;;3.88;;
21754;SDS011;11039;50.028;19.938;2022-08-05T08:17:45;6.30;;;4.10;;
21754;SDS011;11039;50.028;19.938;2022-08-05T08:20:12;6.47;;;3.90;;
21754;SDS011;11039;50.028;19.938;2022-08-05T08:22:38;5.32;;;3.83;;
21754;SDS011;11039;50.028;19.938;2022-08-05T08:25:04;5.60;;;3.88;;
21754;SDS011;11039;50.028;19.938;2022-08-05T08:27:31;4.57;;;3.50;;
21754;SDS011;11039;50.028;19.938;2022-08-05T08:29:57;4.00;;;3.53;;
21754;SDS011;11039;50.028;19.938;2022-08-05T08:32:23;3.80;;;3.40;;
21754;SDS011;11039;50.028;19.938;2022-08-05T08:34:49;4.30;;;3.88;;
21754;SDS011;11039;50.028;19.938;2022-08-05T08:37:16;5.32;;;3.78;;
21754;SDS011;11039;50.028;19.938;2022-08-05T08:39:42;5.72;;;3.70;;
21754;SDS011;11039;50.028;19.938;2022-08-05T08:42:08;5.88;;;3.45;;
21754;SDS011;11039;50.028;19.938;2022-08-05T08:44:35;7.93;;;4.00;;
21754;SDS011;11039;50.028;19.938;2022-08-05T08:47:01;5.15;;;3.90;;
21754;SDS011;11039;50.028;19.938;2022-08-05T08:49:28;4.85;;;3.55;;
21754;SDS011;11039;50.028;19.938;2022-08-05T08:52:00;4.53;;;3.40;;
21754;SDS011;11039;50.028;19.938;2022-08-05T08:54:28;4.40;;;3.42;;
21754;SDS011;11039;50.028;19.938;2022-08-05T08:56:55;6.53;;;3.75;;
21754;SDS011;11039;50.028;19.938;2022-08-05T08:59:21;4.53;;;3.55;;
21754;SDS011;11039;50.028;19.938;2022-08-05T09:01:47;5.80;;;3.95;;
21754;SDS011;11039;50.028;19.938;2022-08-05T09:04:13;4.10;;;3.33;;
21754;SDS011;11039;50.028;19.938;2022-08-05T09:06:40;4.38;;;3.35;;
21754;SDS011;11039;50.028;19.938;2022-08-05T09:09:06;4.07;;;3.20;;
21754;SDS011;11039;50.028;19.938;2022-08-05T09:11:32;4.47;;;3.40;;
21754;SDS011;11039;50.028;19.938;2022-08-05T09:13:58;6.07;;;3.80;;
21754;SDS011;11039;50.028;19.938;2022-08-05T09:16:25;5.30;;;3.55;;
21754;SDS011;11039;50.028;19.938;2022-08-05T09:18:51;3.85;;;3.40;;
21754;SDS011;11039;50.028;19.938;2022-08-05T09:21:18;3.88;;;3.47;;
21754;SDS011;11039;50.028;19.938;2022-08-05T09:23:46;5.70;;;3.65;;
21754;SDS011;11039;50.028;19.938;2022-08-05T09:26:26;5.47;;;3.58;;
21754;SDS011;11039;50.028;19.938;2022-08-05T09:28:52;4.63;;;3.28;;
21754;SDS011;11039;50.028;19.938;2022-08-05T09:31:19;4.88;;;3.78;;
21754;SDS011;11039;50.028;19.938;2022-08-05T09:33:46;5.38;;;3.50;;
21754;SDS011;11039;50.028;19.938;2022-08-05T09:36:12;4.10;;;3.35;;
21754;SDS011;11039;50.028;19.938;2022-08-05T09:38:38;4.53;;;3.42;;
21754;SDS011;11039;50.028;19.938;2022-08-05T09:41:19;5.15;;;3.53;;
21754;SDS011;11039;50.028;19.938;2022-08-05T09:43:45;6.00;;;3.38;;
21754;SDS011;11039;50.028;19.938;2022-08-05T09:46:27;5.45;;;3.22;;
21754;SDS011;11039;50.028;19.938;2022-08-05T09:48:54;5.38;;;3.17;;
21754;SDS011;11039;50.028;19.938;2022-08-05T09:51:30;7.10;;;3.63;;
21754;SDS011;11039;50.028;19.938;2022-08-05T09:53:57;5.45;;;3.47;;
21754;SDS011;11039;50.028;19.938;2022-08-05T09:56:24;11.98;;;3.47;;
21754;SDS011;11039;50.028;19.938;2022-08-05T09:59:10;4.50;;;3.28;;
21754;SDS011;11039;50.028;19.938;2022-08-05T10:01:37;4.47;;;3.65;;
21754;SDS011;11039;50.028;19.938;2022-08-05T10:04:10;5.13;;;3.20;;
21754;SDS011;11039;50.028;19.938;2022-08-05T10:06:42;4.15;;;3.10;;
21754;SDS011;11039;50.028;19.938;2022-08-05T10:09:17;4.80;;;3.55;;
21754;SDS011;11039;50.028;19.938;2022-08-05T10:11:47;4.18;;;3.30;;
21754;SDS011;11039;50.028;19.938;2022-08-05T10:14:27;4.55;;;3.45;;
21754;SDS011;11039;50.028;19.938;2022-08-05T10:16:54;3.53;;;3.05;;
21754;SDS011;11039;50.028;19.938;2022-08-05T10:19:26;4.55;;;3.60;;
21754;SDS011;11039;50.028;19.938;2022-08-05T10:21:52;3.75;;;3.10;;
21754;SDS011;11039;50.028;19.938;2022-08-05T10:24:19;4.72;;;3.53;;
21754;SDS011;11039;50.028;19.938;2022-08-05T10:26:46;4.53;;;3.33;;
21754;SDS011;11039;50.028;19.938;2022-08-05T10:29:13;7.97;;;3.55;;
21754;SDS011;11039;50.028;19.938;2022-08-05T10:31:39;3.90;;;3.28;;
21754;SDS011;11039;50.028;19.938;2022-08-05T10:34:08;3.88;;;3.42;;
21754;SDS011;11039;50.028;19.938;2022-08-05T10:36:38;4.38;;;3.55;;
21754;SDS011;11039;50.028;19.938;2022-08-05T10:39:19;4.18;;;3.10;;
21754;SDS011;11039;50.028;19.938;2022-08-05T10:41:52;4.25;;;3.72;;
21754;SDS011;11039;50.028;19.938;2022-08-05T10:44:20;3.85;;;3.22;;
21754;SDS011;11039;50.028;19.938;2022-08-05T10:46:51;5.35;;;4.07;;
21754;SDS011;11039;50.028;19.938;2022-08-05T10:49:18;5.13;;;3.65;;
21754;SDS011;11039;50.028;19.938;2022-08-05T10:51:45;6.20;;;4.35;;
21754;SDS011;11039;50.028;19.938;2022-08-05T10:54:11;5.05;;;3.80;;
21754;SDS011;11039;50.028;19.938;2022-08-05T10:56:45;4.75;;;3.90;;
21754;SDS011;11039;50.028;19.938;2022-08-05T10:59:15;4.35;;;3.70;;
21754;SDS011;11039;50.028;19.938;2022-08-05T11:01:41;5.53;;;4.10;;
21754;SDS011;11039;50.028;19.938;2022-08-05T11:04:11;4.25;;;3.80;;
21754;SDS011;11039;50.028;19.938;2022-08-05T11:09:38;6.00;;;4.10;;
21754;SDS011;11039;50.028;19.938;2022-08-05T11:17:33;5.20;;;4.05;;
21754;SDS011;11039;50.028;19.938;2022-08-05T11:20:02;8.55;;;4.25;;
21754;SDS011;11039;50.028;19.938;2022-08-05T11:22:39;5.68;;;4.47;;
21754;SDS011;11039;50.028;19.938;2022-08-05T11:27:50;4.45;;;4.00;;
21754;SDS011;11039;50.028;19.938;2022-08-05T11:30:16;5.95;;;4.20;;
21754;SDS011;11039;50.028;19.938;2022-08-05T11:32:42;4.68;;;3.80;;
21754;SDS011;11039;50.028;19.938;2022-08-05T11:35:08;5.53;;;4.60;;
21754;SDS011;11039;50.028;19.938;2022-08-05T11:40:19;5.32;;;3.95;;
21754;SDS011;11039;50.028;19.938;2022-08-05T11:43:05;5.53;;;4.88;;
21754;SDS011;11039;50.028;19.938;2022-08-05T11:45:31;5.60;;;4.20;;
21754;SDS011;11039;50.028;19.938;2022-08-05T11:48:10;5.28;;;4.40;;
21754;SDS011;11039;50.028;19.938;2022-08-05T11:50:37;5.97;;;4.90;;
21754;SDS011;11039;50.028;19.938;2022-08-05T11:53:03;5.13;;;4.30;;
21754;SDS011;11039;50.028;19.938;2022-08-05T11:55:29;5.25;;;4.25;;
21754;SDS011;11039;50.028;19.938;2022-08-05T11:57:55;4.97;;;4.47;;
21754;SDS011;11039;50.028;19.938;2022-08-05T12:00:25;5.28;;;4.00;;
21754;SDS011;11039;50.028;19.938;2022-08-05T12:02:51;4.95;;;4.22;;
21754;SDS011;11039;50.028;19.938;2022-08-05T12:05:27;4.43;;;3.90;;
21754;SDS011;11039;50.028;19.938;2022-08-05T12:07:56;4.93;;;4.28;;
21754;SDS011;11039;50.028;19.938;2022-08-05T12:10:24;4.38;;;3.97;;
21754;SDS011;11039;50.028;19.938;2022-08-05T12:12:51;5.13;;;4.00;;
21754;SDS011;11039;50.028;19.938;2022-08-05T12:15:18;4.35;;;3.95;;
21754;SDS011;11039;50.028;19.938;2022-08-05T12:17:44;4.40;;;4.00;;
21754;SDS011;11039;50.028;19.938;2022-08-05T12:20:11;4.60;;;4.15;;
21754;SDS011;11039;50.028;19.938;2022-08-05T12:22:37;4.43;;;3.85;;
21754;SDS011;11039;50.028;19.938;2022-08-05T12:25:03;4.32;;;3.92;;
21754;SDS011;11039;50.028;19.938;2022-08-05T12:27:30;4.13;;;3.72;;
21754;SDS011;11039;50.028;19.938;2022-08-05T12:30:00;3.80;;;3.17;;
21754;SDS011;11039;50.028;19.938;2022-08-05T12:32:27;4.38;;;3.90;;
21754;SDS011;11039;50.028;19.938;2022-08-05T12:34:53;4.00;;;3.40;;
21754;SDS011;11039;50.028;19.938;2022-08-05T12:37:19;3.60;;;3.30;;
21754;SDS011;11039;50.028;19.938;2022-08-05T12:39:45;3.88;;;3.45;;
21754;SDS011;11039;50.028;19.938;2022-08-05T12:42:12;4.07;;;3.67;;
21754;SDS011;11039;50.028;19.938;2022-08-05T12:44:41;3.92;;;3.58;;
21754;SDS011;11039;50.028;19.938;2022-08-05T12:47:08;3.63;;;3.25;;
21754;SDS011;11039;50.028;19.938;2022-08-05T12:49:41;5.05;;;3.45;;
21754;SDS011;11039;50.028;19.938;2022-08-05T12:52:15;4.07;;;3.63;;
21754;SDS011;11039;50.028;19.938;2022-08-05T12:54:42;4.90;;;3.20;;
21754;SDS011;11039;50.028;19.938;2022-08-05T12:57:09;4.00;;;3.60;;
21754;SDS011;11039;50.028;19.938;2022-08-05T12:59:54;3.72;;;3.33;;
21754;SDS011;11039;50.028;19.938;2022-08-05T13:02:22;3.92;;;3.53;;
21754;SDS011;11039;50.028;19.938;2022-08-05T13:04:49;3.95;;;3.35;;
21754;SDS011;11039;50.028;19.938;2022-08-05T13:07:17;3.55;;;3.25;;
21754;SDS011;11039;50.028;19.938;2022-08-05T13:10:02;4.60;;;3.10;;
21754;SDS011;11039;50.028;19.938;2022-08-05T13:12:28;3.58;;;3.15;;
21754;SDS011;11039;50.028;19.938;2022-08-05T13:14:58;3.60;;;3.28;;
21754;SDS011;11039;50.028;19.938;2022-08-05T13:17:26;3.90;;;3.50;;
21754;SDS011;11039;50.028;19.938;2022-08-05T13:22:28;4.57;;;3.47;;
21754;SDS011;11039;50.028;19.938;2022-08-05T13:24:54;3.60;;;3.30;;
21754;SDS011;11039;50.028;19.938;2022-08-05T13:27:24;3.58;;;3.17;;
21754;SDS011;11039;50.028;19.938;2022-08-05T13:29:50;3.95;;;3.58;;
21754;SDS011;11039;50.028;19.938;2022-08-05T13:32:16;3.78;;;3.42;;
21754;SDS011;11039;50.028;19.938;2022-08-05T13:34:42;3.53;;;3.22;;
21754;SDS011;11039;50.028;19.938;2022-08-05T13:37:08;4.00;;;3.60;;
21754;SDS011;11039;50.028;19.938;2022-08-05T13:39:34;4.10;;;3.50;;
21754;SDS011;11039;50.028;19.938;2022-08-05T13:42:00;3.50;;;3.20;;
21754;SDS011;11039;50.028;19.938;2022-08-05T13:44:26;5.00;;;3.60;;
21754;SDS011;11039;50.028;19.938;2022-08-05T13:46:52;3.58;;;3.28;;
21754;SDS011;11039;50.028;19.938;2022-08-05T13:49:18;4.40;;;3.47;;
21754;SDS011;11039;50.028;19.938;2022-08-05T13:51:44;4.03;;;3.63;;
21754;SDS011;11039;50.028;19.938;2022-08-05T13:54:10;3.50;;;3.10;;
21754;SDS011;11039;50.028;19.938;2022-08-05T13:56:36;5.13;;;3.38;;
21754;SDS011;11039;50.028;19.938;2022-08-05T13:59:02;3.70;;;3.33;;
21754;SDS011;11039;50.028;19.938;2022-08-05T14:01:28;3.53;;;3.22;;
21754;SDS011;11039;50.028;19.938;2022-08-05T14:03:54;3.67;;;3.00;;
21754;SDS011;11039;50.028;19.938;2022-08-05T14:06:39;3.95;;;3.30;;
21754;SDS011;11039;50.028;19.938;2022-08-05T14:09:05;3.50;;;3.17;;
21754;SDS011;11039;50.028;19.938;2022-08-05T14:11:31;3.53;;;3.22;;
21754;SDS011;11039;50.028;19.938;2022-08-05T14:13:57;4.15;;;3.38;;
21754;SDS011;11039;50.028;19.938;2022-08-05T14:16:23;3.90;;;3.50;;
21754;SDS011;11039;50.028;19.938;2022-08-05T14:18:49;4.88;;;3.72;;
21754;SDS011;11039;50.028;19.938;2022-08-05T14:21:15;4.53;;;3.83;;
21754;SDS011;11039;50.028;19.938;2022-08-05T14:23:41;4.95;;;4.45;;
21754;SDS011;11039;50.028;19.938;2022-08-05T14:26:07;5.13;;;4.35;;
21754;SDS011;11039;50.028;19.938;2022-08-05T14:28:33;4.97;;;4.47;;
21754;SDS011;11039;50.028;19.938;2022-08-05T14:30:59;4.93;;;4.43;;
21754;SDS011;11039;50.028;19.938;2022-08-05T14:33:25;5.22;;;4.72;;
21754;SDS011;11039;50.028;19.938;2022-08-05T14:35:51;6.05;;;5.45;;
21754;SDS011;11039;50.028;19.938;2022-08-05T14:38:17;15.82;;;6.82;;
21754;SDS011;11039;50.028;19.938;2022-08-05T14:40:43;7.20;;;6.32;;
21754;SDS011;11039;50.028;19.938;2022-08-05T14:43:09;8.23;;;6.40;;
21754;SDS011;11039;50.028;19.938;2022-08-05T14:45:35;8.30;;;6.03;;
21754;SDS011;11039;50.028;19.938;2022-08-05T14:48:01;7.68;;;5.80;;
21754;SDS011;11039;50.028;19.938;2022-08-05T14:50:27;7.40;;;5.75;;
21754;SDS011;11039;50.028;19.938;2022-08-05T14:52:53;7.05;;;5.38;;
21754;SDS011;11039;50.028;19.938;2022-08-05T14:55:19;6.45;;;4.95;;
21754;SDS011;11039;50.028;19.938;2022-08-05T14:57:45;7.78;;;4.95;;
21754;SDS011;11039;50.028;19.938;2022-08-05T15:00:11;6.15;;;5.30;;
21754;SDS011;11039;50.028;19.938;2022-08-05T15:02:37;6.00;;;5.28;;